createdAt,value
2018-06-08T00:01:25.296Z,24.73
2018-06-08T00:03:54.471Z,22.70
2018-06-08T00:06:23.558Z,23.23
2018-06-08T00:08:52.669Z,23.17
2018-06-08T00:11:21.756Z,18.30
2018-06-08T00:13:50.840Z,17.47
2018-06-08T00:16:19.959Z,15.43
2018-06-08T00:18:49.043Z,20.43
2018-06-08T00:21:18.152Z,23.40
2018-06-08T00:23:47.232Z,23.23
2018-06-08T00:26:16.424Z,27.87
2018-06-08T00:28:45.518Z,22.27
2018-06-08T00:31:14.625Z,17.53
2018-06-08T00:33:43.718Z,20.03
2018-06-08T00:36:12.824Z,20.87
2018-06-08T00:38:42.340Z,25.20
2018-06-08T00:41:11.469Z,21.27
2018-06-08T00:43:40.568Z,16.40
2018-06-08T00:46:09.684Z,19.43
2018-06-08T00:48:38.784Z,23.00
2018-06-08T00:51:07.893Z,18.23
2018-06-08T00:53:36.981Z,22.13
2018-06-08T00:56:06.148Z,26.07
2018-06-08T00:58:35.240Z,20.10
2018-06-08T01:01:04.367Z,27.73
2018-06-08T01:03:33.450Z,21.33
2018-06-08T01:06:02.560Z,24.27
2018-06-08T01:08:31.644Z,15.90
2018-06-08T01:11:00.748Z,22.33
2018-06-08T01:13:29.845Z,23.40
2018-06-08T01:15:58.958Z,23.13
2018-06-08T01:18:28.043Z,19.27
2018-06-08T01:20:57.164Z,17.23
2018-06-08T01:23:26.248Z,19.60
2018-06-08T01:25:55.356Z,23.03
2018-06-08T01:28:24.444Z,26.60
2018-06-08T01:30:53.552Z,15.90
2018-06-08T01:33:22.656Z,22.30
2018-06-08T01:35:51.769Z,16.70
2018-06-08T01:38:20.860Z,17.90
2018-06-08T01:40:49.985Z,29.00
2018-06-08T01:43:19.057Z,18.17
2018-06-08T01:45:48.152Z,22.83
2018-06-08T01:48:17.240Z,20.10
2018-06-08T01:50:46.340Z,21.70
2018-06-08T01:53:15.409Z,17.53
2018-06-08T01:55:44.512Z,23.80
2018-06-08T01:58:13.587Z,19.23
2018-06-08T02:00:42.688Z,24.97
2018-06-08T02:03:11.780Z,27.47
2018-06-08T02:05:40.881Z,22.70
2018-06-08T02:08:09.960Z,23.37
2018-06-08T02:10:39.073Z,18.50
2018-06-08T02:13:08.151Z,23.70
2018-06-08T02:15:37.251Z,26.17
2018-06-08T02:18:06.340Z,18.83
2018-06-08T02:20:35.436Z,16.43
2018-06-08T02:23:04.528Z,22.33
2018-06-08T02:25:33.632Z,16.23
2018-06-08T02:28:02.793Z,23.50
2018-06-08T02:30:31.872Z,19.90
2018-06-08T02:33:00.948Z,21.80
2018-06-08T02:35:30.053Z,21.50
2018-06-08T02:37:59.120Z,23.27
2018-06-08T02:40:28.219Z,27.23
2018-06-08T02:42:57.324Z,23.40
2018-06-08T02:45:26.409Z,20.50
2018-06-08T02:47:55.508Z,20.77
2018-06-08T02:50:24.601Z,25.83
2018-06-08T02:52:53.696Z,23.23
2018-06-08T02:55:22.776Z,19.77
2018-06-08T02:57:51.884Z,22.83
2018-06-08T03:00:20.977Z,21.53
2018-06-08T03:02:50.089Z,23.97
2018-06-08T03:05:19.216Z,18.87
2018-06-08T03:07:48.277Z,22.07
2018-06-08T03:10:17.352Z,24.03
2018-06-08T03:12:46.460Z,28.80
2018-06-08T03:15:15.546Z,19.90
2018-06-08T03:17:44.657Z,23.73
2018-06-08T03:20:13.740Z,27.30
2018-06-08T03:22:42.844Z,17.60
2018-06-08T03:25:11.925Z,18.87
2018-06-08T03:27:41.028Z,22.47
2018-06-08T03:30:10.122Z,22.23
2018-06-08T03:32:39.264Z,21.27
2018-06-08T03:35:08.344Z,20.70
2018-06-08T03:37:37.456Z,31.60
2018-06-08T03:40:06.560Z,22.97
2018-06-08T03:42:35.669Z,24.87
2018-06-08T03:45:05.026Z,21.37
2018-06-08T03:47:34.148Z,20.80
2018-06-08T03:50:03.240Z,23.30
2018-06-08T03:52:32.346Z,21.60
2018-06-08T03:55:01.432Z,21.37
2018-06-08T03:57:30.532Z,25.40
2018-06-08T03:59:59.625Z,21.33
2018-06-08T04:02:28.744Z,22.37
2018-06-08T04:04:57.793Z,22.07
2018-06-08T04:07:26.885Z,27.90
2018-06-08T04:09:55.951Z,29.67
2018-06-08T04:12:25.108Z,19.60
2018-06-08T04:14:54.187Z,29.80
2018-06-08T04:17:23.323Z,23.63
2018-06-08T04:19:52.410Z,30.50
2018-06-08T04:22:21.504Z,24.47
2018-06-08T04:24:50.572Z,33.23
2018-06-08T04:27:19.664Z,34.53
2018-06-08T04:29:48.748Z,25.37
2018-06-08T04:32:17.849Z,23.20
2018-06-08T04:34:46.928Z,29.43
2018-06-08T04:37:16.028Z,23.30
2018-06-08T04:39:45.121Z,25.00
2018-06-08T04:42:14.240Z,25.37
2018-06-08T04:44:43.324Z,24.50
2018-06-08T04:47:12.432Z,31.13
2018-06-08T04:49:41.508Z,25.70
2018-06-08T04:52:10.612Z,22.30
2018-06-08T04:54:39.697Z,20.37
2018-06-08T04:57:08.791Z,29.80
2018-06-08T04:59:37.867Z,46.13
2018-06-08T05:02:07.002Z,27.58
2018-06-08T05:04:36.116Z,26.33
2018-06-08T05:07:05.541Z,25.27
2018-06-08T05:09:34.635Z,33.07
2018-06-08T05:12:03.771Z,30.30
2018-06-08T05:14:32.864Z,27.77
2018-06-08T05:17:01.992Z,36.90
2018-06-08T05:19:31.190Z,28.77
2018-06-08T05:22:00.293Z,22.90
2018-06-08T05:24:29.505Z,30.40
2018-06-08T05:26:58.592Z,26.70
2018-06-08T05:29:27.733Z,33.02
2018-06-08T05:31:56.829Z,32.03
2018-06-08T05:34:25.994Z,32.55
2018-06-08T05:36:55.089Z,30.60
2018-06-08T05:39:24.217Z,26.87
2018-06-08T05:41:53.327Z,25.10
2018-06-08T05:44:22.445Z,26.10
2018-06-08T05:46:51.549Z,31.68
2018-06-08T05:49:20.672Z,25.67
2018-06-08T05:51:49.772Z,26.37
2018-06-08T05:54:18.937Z,35.20
2018-06-08T05:56:47.985Z,31.03
2018-06-08T05:59:17.107Z,56.90
2018-06-08T06:01:46.200Z,30.50
2018-06-08T06:04:15.336Z,30.20
2018-06-08T06:06:44.437Z,26.27
2018-06-08T06:09:13.547Z,29.27
2018-06-08T06:11:42.649Z,34.10
2018-06-08T06:14:11.764Z,27.07
2018-06-08T06:16:40.852Z,29.03
2018-06-08T06:19:09.960Z,32.85
2018-06-08T06:21:39.058Z,36.55
2018-06-08T06:24:08.196Z,29.87
2018-06-08T06:26:37.327Z,33.10
2018-06-08T06:29:06.447Z,27.37
2018-06-08T06:31:35.544Z,37.23
2018-06-08T06:34:04.653Z,27.07
2018-06-08T06:36:33.741Z,31.12
2018-06-08T06:39:02.920Z,30.90
2018-06-08T06:41:32.040Z,40.43
2018-06-08T06:44:01.156Z,38.00
2018-06-08T06:46:30.691Z,36.63
2018-06-08T06:48:59.808Z,37.27
2018-06-08T06:51:28.893Z,38.20
2018-06-08T06:53:58.005Z,34.05
2018-06-08T06:56:27.092Z,37.73
2018-06-08T06:58:56.208Z,31.80
2018-06-08T07:01:25.313Z,32.70
2018-06-08T07:03:54.485Z,33.70
2018-06-08T07:06:23.632Z,31.63
2018-06-08T07:08:52.773Z,30.52
2018-06-08T07:11:21.860Z,34.33
2018-06-08T07:13:50.993Z,50.40
2018-06-08T07:16:20.076Z,43.93
2018-06-08T07:18:49.516Z,34.97
2018-06-08T07:21:18.601Z,36.97
2018-06-08T07:23:47.723Z,31.47
2018-06-08T07:26:16.824Z,34.13
2018-06-08T07:28:45.957Z,33.30
2018-06-08T07:31:15.049Z,34.60
2018-06-08T07:33:44.168Z,39.10
2018-06-08T07:36:13.313Z,37.53
2018-06-08T07:38:42.416Z,34.93
2018-06-08T07:41:11.544Z,34.97
2018-06-08T07:43:40.673Z,38.60
2018-06-08T07:46:10.128Z,31.63
2018-06-08T07:48:39.251Z,31.20
2018-06-08T07:51:08.357Z,42.00
2018-06-08T07:53:37.493Z,35.30
2018-06-08T07:56:06.591Z,29.40
2018-06-08T07:58:35.712Z,25.62
2018-06-08T08:01:04.797Z,31.80
2018-06-08T08:03:33.892Z,27.83
2018-06-08T08:06:03.027Z,36.87
2018-06-08T08:08:32.089Z,30.63
2018-06-08T08:11:01.261Z,30.12
2018-06-08T08:13:30.374Z,35.67
2018-06-08T08:15:59.489Z,33.28
2018-06-08T08:18:28.585Z,34.50
2018-06-08T08:20:57.700Z,36.50
2018-06-08T08:23:26.805Z,27.60
2018-06-08T08:25:55.929Z,22.80
2018-06-08T08:28:25.041Z,27.30
2018-06-08T08:30:54.177Z,29.77
2018-06-08T08:33:23.278Z,24.00
2018-06-08T08:38:33.304Z,34.13
2018-06-08T08:41:02.456Z,24.60
2018-06-08T08:43:31.574Z,23.62
2018-06-08T08:46:00.696Z,30.43
2018-06-08T08:48:29.793Z,24.43
2018-06-08T08:50:58.917Z,21.62
2018-06-08T08:53:28.021Z,18.77
2018-06-08T08:55:57.160Z,18.42
2018-06-08T08:58:26.293Z,23.10
2018-06-08T09:00:55.412Z,23.20
2018-06-08T09:03:24.500Z,21.37
2018-06-08T09:05:53.653Z,22.25
2018-06-08T09:08:22.761Z,18.63
2018-06-08T09:10:51.884Z,20.43
2018-06-08T09:13:21.017Z,20.90
2018-06-08T09:15:50.141Z,26.10
2018-06-08T09:18:19.248Z,20.13
2018-06-08T09:20:48.361Z,19.27
2018-06-08T09:23:17.464Z,16.60
2018-06-08T09:25:46.592Z,16.87
2018-06-08T09:28:25.440Z,14.73
2018-06-08T09:30:54.561Z,16.07
2018-06-08T09:33:23.657Z,12.00
2018-06-08T09:35:52.761Z,15.50
2018-06-08T09:38:22.156Z,14.60
2018-06-08T09:40:51.280Z,16.27
2018-06-08T09:43:20.375Z,15.57
2018-06-08T09:45:49.476Z,14.90
2018-06-08T09:48:18.581Z,14.17
2018-06-08T09:50:47.692Z,14.73
2018-06-08T09:53:16.772Z,13.80
2018-06-08T09:55:45.897Z,12.82
2018-06-08T09:58:14.979Z,17.37
2018-06-08T10:00:44.116Z,19.45
2018-06-08T10:03:13.256Z,13.88
2018-06-08T10:05:42.363Z,21.27
2018-06-08T10:08:11.480Z,12.90
2018-06-08T10:10:40.580Z,18.50
2018-06-08T10:13:09.689Z,14.90
2018-06-08T10:15:38.845Z,14.43
2018-06-08T10:18:07.983Z,15.23
2018-06-08T10:20:37.084Z,14.10
2018-06-08T10:23:06.208Z,14.17
2018-06-08T10:25:35.303Z,12.58
2018-06-08T10:28:04.426Z,18.40
2018-06-08T10:30:34.260Z,14.13
2018-06-08T10:33:03.360Z,14.90
2018-06-08T10:35:32.468Z,14.53
2018-06-08T10:38:01.572Z,14.10
2018-06-08T10:40:30.695Z,12.80
2018-06-08T10:42:59.787Z,15.60
2018-06-08T10:45:28.865Z,11.43
2018-06-08T10:47:57.964Z,16.97
2018-06-08T10:50:27.053Z,12.37
2018-06-08T10:52:56.182Z,12.30
2018-06-08T10:55:26.256Z,14.03
2018-06-08T10:57:55.371Z,13.23
2018-06-08T11:00:24.475Z,14.78
2018-06-08T11:02:53.600Z,10.37
2018-06-08T11:05:22.721Z,11.45
2018-06-08T11:07:51.832Z,11.65
2018-06-08T11:10:20.933Z,13.10
2018-06-08T11:12:50.129Z,11.93
2018-06-08T11:15:19.212Z,12.53
2018-06-08T11:17:48.360Z,8.87
2018-06-08T11:20:18.281Z,14.50
2018-06-08T11:22:47.397Z,18.43
2018-06-08T11:25:16.505Z,14.27
2018-06-08T11:27:45.641Z,13.60
2018-06-08T11:30:14.736Z,11.43
2018-06-08T11:32:43.841Z,12.30
2018-06-08T11:35:12.952Z,12.37
2018-06-08T11:37:42.040Z,18.00
2018-06-08T11:40:11.174Z,23.40
2018-06-08T11:42:40.259Z,16.40
2018-06-08T11:45:09.563Z,11.57
2018-06-08T11:47:38.649Z,11.03
2018-06-08T11:50:07.756Z,10.00
2018-06-08T11:52:36.832Z,16.57
2018-06-08T11:55:05.961Z,13.75
2018-06-08T11:57:35.056Z,16.87
2018-06-08T12:00:04.531Z,15.60
2018-06-08T12:02:33.604Z,13.77
2018-06-08T12:05:02.701Z,14.58
2018-06-08T12:07:31.776Z,17.95
2018-06-08T12:10:01.624Z,10.23
2018-06-08T12:12:30.727Z,9.77
2018-06-08T12:14:59.832Z,20.03
2018-06-08T12:17:28.908Z,16.40
2018-06-08T12:19:58.049Z,13.00
2018-06-08T12:22:27.120Z,11.03
2018-06-08T12:24:56.391Z,21.07
2018-06-08T12:27:25.473Z,12.88
2018-06-08T12:29:54.638Z,13.22
2018-06-08T12:32:23.671Z,14.37
2018-06-08T12:34:52.871Z,18.27
2018-06-08T12:37:21.972Z,25.07
2018-06-08T12:39:51.073Z,14.87
2018-06-08T12:42:20.250Z,11.60
2018-06-08T12:44:49.349Z,11.50
2018-06-08T12:47:18.461Z,14.43
2018-06-08T12:49:47.570Z,12.00
2018-06-08T12:52:16.800Z,13.50
2018-06-08T12:54:46.033Z,19.47
2018-06-08T12:57:15.161Z,20.52
2018-06-08T12:59:44.371Z,22.00
2018-06-08T13:02:13.532Z,16.80
2018-06-08T13:04:42.640Z,29.90
2018-06-08T13:07:11.771Z,20.27
2018-06-08T13:09:40.865Z,13.90
2018-06-08T13:12:09.992Z,18.00
2018-06-08T13:14:39.105Z,17.85
2018-06-08T13:17:08.342Z,24.00
2018-06-08T13:19:37.476Z,26.83
2018-06-08T13:22:06.581Z,13.93
2018-06-08T13:24:35.679Z,18.47
2018-06-08T13:27:04.929Z,13.83
2018-06-08T13:29:34.237Z,12.53
2018-06-08T13:32:03.349Z,10.93
2018-06-08T13:34:32.537Z,11.50
2018-06-08T13:37:01.821Z,16.10
2018-06-08T13:39:31.087Z,18.73
2018-06-08T13:42:00.175Z,12.30
2018-06-08T13:44:29.309Z,13.00
2018-06-08T13:46:58.511Z,19.00
2018-06-08T13:49:27.664Z,14.70
2018-06-08T13:51:56.769Z,20.43
2018-06-08T13:54:25.909Z,14.50
2018-06-08T13:56:55.012Z,18.60
2018-06-08T13:59:24.197Z,17.45
2018-06-08T14:01:53.296Z,16.25
2018-06-08T14:04:22.413Z,19.30
2018-06-08T14:06:51.500Z,15.13
2018-06-08T14:09:20.638Z,17.30
2018-06-08T14:11:50.765Z,17.73
2018-06-08T14:14:19.993Z,15.97
2018-06-08T14:16:49.247Z,23.07
2018-06-08T14:19:19.061Z,23.52
2018-06-08T14:21:50.136Z,25.20
2018-06-08T14:24:19.864Z,19.52
2018-06-08T14:26:49.075Z,20.97
2018-06-08T14:29:18.232Z,22.22
2018-06-08T14:31:47.406Z,23.30
2018-06-08T14:34:16.541Z,29.05
2018-06-08T14:36:45.842Z,23.93
2018-06-08T14:39:14.957Z,21.17
2018-06-08T14:41:44.068Z,20.60
2018-06-08T14:44:13.204Z,19.30
2018-06-08T14:46:42.767Z,20.52
2018-06-08T14:49:12.476Z,17.42
2018-06-08T14:51:41.568Z,18.57
2018-06-08T14:54:10.760Z,21.50
2018-06-08T14:56:40.787Z,19.53
2018-06-08T14:59:10.682Z,21.30
2018-06-08T15:01:39.819Z,33.60
2018-06-08T15:04:08.948Z,20.90
2018-06-08T15:06:38.120Z,27.30
2018-06-08T15:09:07.627Z,23.20
2018-06-08T15:11:36.777Z,23.07
2018-06-08T15:14:05.877Z,32.63
2018-06-08T15:16:35.001Z,30.23
2018-06-08T15:19:04.188Z,24.93
2018-06-08T15:21:33.301Z,18.73
2018-06-08T15:24:02.737Z,22.47
2018-06-08T15:26:31.863Z,22.60
2018-06-08T15:29:01.037Z,24.70
2018-06-08T15:31:30.148Z,22.70
2018-06-08T15:33:59.264Z,19.73
2018-06-08T15:36:28.651Z,27.60
2018-06-08T15:38:57.788Z,25.85
2018-06-08T15:41:26.932Z,19.42
2018-06-08T15:43:56.033Z,23.93
2018-06-08T15:46:25.165Z,23.73
2018-06-08T15:48:54.268Z,19.87
2018-06-08T15:51:23.613Z,21.35
2018-06-08T15:53:52.737Z,18.70
2018-06-08T15:56:21.955Z,17.00
2018-06-08T15:58:51.059Z,27.83
2018-06-08T16:01:20.184Z,18.37
2018-06-08T16:03:49.328Z,20.68
2018-06-08T16:06:18.522Z,17.55
2018-06-08T16:08:47.637Z,21.50
2018-06-08T16:11:17.707Z,17.43
2018-06-08T16:13:46.838Z,20.73
2018-06-08T16:16:16.012Z,19.17
2018-06-08T16:18:45.151Z,24.23
2018-06-08T16:21:14.258Z,20.20
2018-06-08T16:23:43.385Z,21.65
2018-06-08T16:26:12.477Z,21.00
2018-06-08T16:28:41.638Z,26.20
2018-06-08T16:31:10.868Z,25.57
2018-06-08T16:33:40.049Z,24.23
2018-06-08T16:36:10.134Z,23.33
2018-06-08T16:38:39.314Z,24.90
2018-06-08T16:41:08.429Z,29.23
2018-06-08T16:43:37.548Z,26.80
2018-06-08T16:46:06.650Z,27.40
2018-06-08T16:48:35.797Z,28.13
2018-06-08T16:51:04.896Z,25.05
2018-06-08T16:53:34.086Z,39.13
2018-06-08T16:56:03.204Z,26.77
2018-06-08T16:58:32.385Z,26.63
2018-06-08T17:01:01.496Z,33.50
2018-06-08T17:03:30.648Z,31.07
2018-06-08T17:05:59.776Z,30.63
2018-06-08T17:08:28.875Z,33.13
2018-06-08T17:10:58.053Z,39.00
2018-06-08T17:13:27.145Z,29.45
2018-06-08T17:15:56.260Z,32.73
2018-06-08T17:18:25.428Z,30.20
2018-06-08T17:20:54.637Z,31.43
2018-06-08T17:23:23.816Z,30.77
2018-06-08T17:25:53.052Z,33.40
2018-06-08T17:28:22.159Z,31.23
2018-06-08T17:30:51.321Z,37.20
2018-06-08T17:33:21.324Z,35.00
2018-06-08T17:35:50.548Z,35.50
2018-06-08T17:38:19.704Z,33.88
2018-06-08T17:40:48.893Z,31.40
2018-06-08T17:43:17.994Z,33.23
2018-06-08T17:45:47.089Z,32.95
2018-06-08T17:48:16.169Z,35.40
2018-06-08T17:50:45.267Z,27.33
2018-06-08T17:53:14.395Z,40.93
2018-06-08T17:55:43.661Z,32.25
2018-06-08T17:58:12.756Z,39.10
2018-06-08T18:00:41.880Z,38.50
2018-06-08T18:03:11.062Z,35.13
2018-06-08T18:05:40.168Z,32.43
2018-06-08T18:08:09.272Z,34.15
2018-06-08T18:10:38.451Z,38.10
2018-06-08T18:13:07.565Z,30.80
2018-06-08T18:15:36.649Z,31.40
2018-06-08T18:18:05.756Z,32.60
2018-06-08T18:20:34.841Z,30.57
2018-06-08T18:23:04.043Z,31.70
2018-06-08T18:25:33.128Z,37.03
2018-06-08T18:28:02.341Z,33.80
2018-06-08T18:30:31.445Z,36.97
2018-06-08T18:33:00.552Z,35.47
2018-06-08T18:35:29.703Z,36.15
2018-06-08T18:37:58.796Z,39.50
2018-06-08T18:40:27.884Z,35.17
2018-06-08T18:42:57.025Z,37.95
2018-06-08T18:45:26.125Z,40.47
2018-06-08T18:47:55.241Z,40.70
2018-06-08T18:50:24.416Z,40.27
2018-06-08T18:52:53.523Z,37.40
2018-06-08T18:55:22.617Z,35.43
2018-06-08T18:57:51.736Z,37.13
2018-06-08T19:00:20.866Z,33.00
2018-06-08T19:02:49.959Z,39.07
2018-06-08T19:05:19.370Z,39.93
2018-06-08T19:07:48.484Z,36.30
2018-06-08T19:10:17.576Z,33.90
2018-06-08T19:12:46.780Z,33.33
2018-06-08T19:15:15.869Z,36.10
2018-06-08T19:17:44.997Z,32.03
2018-06-08T19:20:14.116Z,38.33
2018-06-08T19:22:43.305Z,34.75
2018-06-08T19:25:12.410Z,36.30
2018-06-08T19:27:41.596Z,34.20
2018-06-08T19:30:10.717Z,36.53
2018-06-08T19:32:39.903Z,36.77
2018-06-08T19:35:09.029Z,37.83
2018-06-08T19:37:38.136Z,39.83
2018-06-08T19:40:07.465Z,40.53
2018-06-08T19:42:36.581Z,39.65
2018-06-08T19:45:06.005Z,38.60
2018-06-08T19:47:35.136Z,39.70
2018-06-08T19:50:04.296Z,35.43
2018-06-08T19:52:33.449Z,41.63
2018-06-08T19:55:02.662Z,35.47
2018-06-08T19:57:31.770Z,47.50
2018-06-08T20:00:01.005Z,35.47
2018-06-08T20:02:30.133Z,33.80
2018-06-08T20:04:59.302Z,35.85
2018-06-08T20:07:28.412Z,36.70
2018-06-08T20:09:57.582Z,42.07
2018-06-08T20:12:26.707Z,38.70
2018-06-08T20:14:55.880Z,36.23
2018-06-08T20:17:25.020Z,36.10
2018-06-08T20:19:54.285Z,37.70
2018-06-08T20:22:23.416Z,40.75
2018-06-08T20:24:52.545Z,32.40
2018-06-08T20:27:21.854Z,38.63
2018-06-08T20:29:51.001Z,36.47
2018-06-08T20:32:20.766Z,32.48
2018-06-08T20:34:49.902Z,30.97
2018-06-08T20:37:18.996Z,27.58
2018-06-08T20:39:48.141Z,24.57
2018-06-08T20:42:17.271Z,28.37
2018-06-08T20:44:46.436Z,24.50
2018-06-08T20:47:15.565Z,35.17
2018-06-08T20:49:44.687Z,25.77
2018-06-08T20:52:13.830Z,27.07
2018-06-08T20:54:43.005Z,28.62
2018-06-08T20:57:17.037Z,31.13
2018-06-08T20:59:46.185Z,28.03
2018-06-08T21:02:15.393Z,26.33
2018-06-08T21:04:44.505Z,27.17
2018-06-08T21:07:13.641Z,30.97
2018-06-08T21:09:42.773Z,27.13
2018-06-08T21:12:11.941Z,22.57
2018-06-08T21:14:41.058Z,24.83
2018-06-08T21:17:10.204Z,35.10
2018-06-08T21:19:39.352Z,20.83
2018-06-08T21:22:08.521Z,18.15
2018-06-08T21:24:37.680Z,33.10
2018-06-08T21:27:06.858Z,20.25
2018-06-08T21:29:35.933Z,21.13
2018-06-08T21:32:05.111Z,23.95
2018-06-08T21:34:34.227Z,15.83
2018-06-08T21:37:03.445Z,16.67
2018-06-08T21:39:32.565Z,19.80
2018-06-08T21:42:01.854Z,11.53
2018-06-08T21:44:31.018Z,19.70
2018-06-08T21:47:00.144Z,12.65
2018-06-08T21:49:29.306Z,21.00
2018-06-08T21:51:58.574Z,22.30
2018-06-08T21:54:27.793Z,14.28
2018-06-08T21:56:56.916Z,13.27
2018-06-08T21:59:26.078Z,13.08
2018-06-08T22:01:55.233Z,21.53
2018-06-08T22:04:24.323Z,14.97
2018-06-08T22:06:53.484Z,16.57
2018-06-08T22:09:22.600Z,15.97
2018-06-08T22:11:51.747Z,8.43
2018-06-08T22:14:20.859Z,13.53
2018-06-08T22:16:49.965Z,25.50
2018-06-08T22:19:19.089Z,19.10
2018-06-08T22:21:48.191Z,16.93
2018-06-08T22:24:17.332Z,13.50
2018-06-08T22:26:46.428Z,12.10
2018-06-08T22:29:15.543Z,14.77
2018-06-08T22:31:44.645Z,12.60
2018-06-08T22:34:13.757Z,17.10
2018-06-08T22:36:42.880Z,7.50
2018-06-08T22:39:11.993Z,15.80
2018-06-08T22:41:41.108Z,16.00
2018-06-08T22:44:10.224Z,16.00
2018-06-08T22:46:39.312Z,9.73
2018-06-08T22:49:08.428Z,15.03
2018-06-08T22:51:37.516Z,14.77
2018-06-08T22:54:06.632Z,10.50
2018-06-08T22:56:35.716Z,15.50
2018-06-08T22:59:04.830Z,14.47
2018-06-08T23:01:33.912Z,11.53
2018-06-08T23:04:03.044Z,14.10
2018-06-08T23:06:32.143Z,10.90
2018-06-08T23:09:01.250Z,8.30
2018-06-08T23:11:30.348Z,12.80
2018-06-08T23:13:59.457Z,13.93
2018-06-08T23:16:28.553Z,13.83
2018-06-08T23:18:57.664Z,12.70
2018-06-08T23:21:26.752Z,10.33
2018-06-08T23:23:56.883Z,13.70
2018-06-08T23:26:25.979Z,12.80
2018-06-08T23:28:55.068Z,11.60
2018-06-08T23:31:24.186Z,12.33
2018-06-08T23:33:53.268Z,16.53
2018-06-08T23:36:22.379Z,10.80
2018-06-08T23:38:51.472Z,11.40
2018-06-08T23:41:20.609Z,14.50
2018-06-08T23:43:49.735Z,14.30
2018-06-08T23:46:18.808Z,15.00
2018-06-08T23:48:47.899Z,12.20
2018-06-08T23:51:17.004Z,13.13
2018-06-08T23:53:46.087Z,9.30
2018-06-08T23:56:15.187Z,9.93
2018-06-08T23:58:44.272Z,18.00
